Time;durP1;ratioP1;P1;durP2;ratioP2;P2;SDS_P1;SDS_P2;PMS_P1;PMS_P2;Temp;Humidity;BMP_temperature;BMP_pressure;BME280_temperature;BME280_humidity;BME280_pressure;Samples;Min_cycle;Max_cycle;Signal;HPM_P1;HPM_P2
2021/04/03 00:00:30;;;;;;;27.08;3.35;;;;;;;5.25;100.00;102785.22;6166516;23;20063;-80
2021/04/03 00:02:56;;;;;;;15.60;3.55;;;;;;;5.32;100.00;102785.31;6167437;23;20021;-81
2021/04/03 00:05:23;;;;;;;12.40;3.53;;;;;;;5.34;100.00;102782.69;6166840;23;20005;-81
2021/04/03 00:07:49;;;;;;;20.08;2.97;;;;;;;5.37;100.00;102790.56;6166777;23;20005;-81
2021/04/03 00:10:20;;;;;;;17.17;2.45;;;;;;;5.44;100.00;102789.78;6166452;23;20033;-81
2021/04/03 00:12:46;;;;;;;20.67;2.88;;;;;;;5.46;100.00;102793.28;6165770;23;20001;-81
2021/04/03 00:15:12;;;;;;;15.15;2.63;;;;;;;5.52;100.00;102784.56;6165286;23;20010;-81
2021/04/03 00:17:38;;;;;;;20.38;3.63;;;;;;;5.47;100.00;102787.16;6165840;23;20005;-81
2021/04/03 00:20:05;;;;;;;15.77;2.60;;;;;;;5.52;100.00;102792.44;6164701;23;20001;-81
2021/04/03 00:22:31;;;;;;;15.43;3.40;;;;;;;5.52;100.00;102785.44;6163881;23;20005;-81
2021/04/03 00:24:56;;;;;;;18.65;3.53;;;;;;;5.43;100.00;102788.03;6167240;23;20029;-81
2021/04/03 00:27:21;;;;;;;14.57;2.80;;;;;;;5.51;100.00;102786.31;6175028;23;20006;-79
2021/04/03 00:29:47;;;;;;;12.15;3.13;;;;;;;5.44;100.00;102795.88;6171855;23;20005;-80
2021/04/03 00:32:12;;;;;;;20.90;3.30;;;;;;;5.38;100.00;102790.59;6143647;23;20008;-80
2021/04/03 00:34:38;;;;;;;27.50;3.28;;;;;;;5.41;100.00;102790.59;6168377;23;20009;-80
2021/04/03 00:37:03;;;;;;;13.50;2.70;;;;;;;5.33;100.00;102786.19;6162894;23;20035;-80
2021/04/03 00:39:29;;;;;;;25.52;3.10;;;;;;;5.35;100.00;102792.31;6163197;23;20002;-80
2021/04/03 00:41:54;;;;;;;16.33;3.22;;;;;;;5.33;100.00;102787.06;6162372;23;20002;-80
2021/04/03 00:44:20;;;;;;;19.02;3.20;;;;;;;5.25;100.00;102786.09;6163193;23;20404;-81
2021/04/03 00:46:45;;;;;;;20.65;3.15;;;;;;;5.09;100.00;102781.59;6137357;23;20014;-80
2021/04/03 00:49:10;;;;;;;14.23;3.53;;;;;;;5.05;100.00;102782.44;6163124;23;20000;-80
2021/04/03 00:51:36;;;;;;;13.52;2.70;;;;;;;5.02;100.00;102785.91;6164619;23;20029;-81
2021/04/03 00:54:01;;;;;;;20.45;2.60;;;;;;;5.01;100.00;102783.25;6165166;23;20049;-81
2021/04/03 00:56:27;;;;;;;18.02;2.92;;;;;;;5.18;100.00;102779.94;6139504;23;20013;-80
2021/04/03 00:58:54;;;;;;;17.15;3.75;;;;;;;5.17;100.00;102782.53;6164750;23;20718;-80
2021/04/03 01:01:20;;;;;;;19.02;2.63;;;;;;;5.19;100.00;102771.22;6164937;23;20012;-80
2021/04/03 01:03:46;;;;;;;16.85;3.20;;;;;;;5.19;100.00;102762.47;6164006;23;20001;-80
2021/04/03 01:06:11;;;;;;;26.20;3.47;;;;;;;5.19;100.00;102763.34;6163452;23;20455;-80
2021/04/03 01:08:37;;;;;;;17.20;4.22;;;;;;;5.18;100.00;102763.34;6163940;23;20069;-80
2021/04/03 01:11:03;;;;;;;20.40;2.90;;;;;;;5.28;100.00;102770.41;6163066;23;20085;-80
2021/04/03 01:13:47;;;;;;;15.75;3.35;;;;;;;5.25;100.00;102767.75;6162853;23;20019;-80
2021/04/03 01:16:25;;;;;;;11.27;2.20;;;;;;;5.30;100.00;102773.03;6166291;23;20184;-80
2021/04/03 01:19:25;;;;;;;20.20;2.88;;;;;;;5.28;100.00;102766.91;6166691;23;20061;-79
2021/04/03 01:22:07;;;;;;;17.00;2.78;;;;;;;5.28;100.00;102767.78;6166667;23;20013;-80
2021/04/03 01:24:52;;;;;;;21.33;3.10;;;;;;;5.32;100.00;102766.97;6166943;23;20009;-80
2021/04/03 01:27:22;;;;;;;15.57;2.78;;;;;;;5.39;100.00;102758.25;6164159;23;20046;-80
2021/04/03 01:30:05;;;;;;;21.75;3.28;;;;;;;5.42;100.00;102757.38;6163059;23;20002;-79
2021/04/03 01:32:35;;;;;;;19.88;3.88;;;;;;;5.39;100.00;102776.63;6162143;23;20057;-80
2021/04/03 01:35:03;;;;;;;28.00;3.38;;;;;;;5.39;100.00;102775.75;6162819;23;20036;-80
2021/04/03 01:37:31;;;;;;;19.77;3.33;;;;;;;5.40;100.00;102756.50;6163248;23;19997;-80
2021/04/03 01:39:58;;;;;;;23.98;5.63;;;;;;;5.43;100.00;102762.66;6137433;23;20085;-79
2021/04/03 01:42:29;;;;;;;23.70;3.30;;;;;;;5.44;100.00;102767.03;6163032;23;20100;-80
2021/04/03 01:44:58;;;;;;;21.15;4.53;;;;;;;5.45;100.00;102763.53;6162857;23;20006;-81
2021/04/03 01:47:30;;;;;;;24.58;4.50;;;;;;;5.45;100.00;102760.03;6165126;23;20416;-80
2021/04/03 01:49:57;;;;;;;16.92;3.53;;;;;;;5.45;100.00;102754.81;6165377;23;20002;-80
2021/04/03 01:52:25;;;;;;;28.88;4.22;;;;;;;5.43;100.00;102757.44;6164511;23;20506;-80
2021/04/03 01:54:52;;;;;;;26.77;4.28;;;;;;;5.45;100.00;102755.69;6141803;23;20379;-80
2021/04/03 01:57:18;;;;;;;25.40;4.10;;;;;;;5.46;100.00;102757.44;6168513;23;20002;-80
2021/04/03 01:59:46;;;;;;;27.17;3.30;;;;;;;5.51;100.00;102751.34;6168488;23;20047;-80
2021/04/03 02:02:12;;;;;;;18.63;3.05;;;;;;;5.48;100.00;102764.44;6166994;23;20439;-79
2021/04/03 02:04:41;;;;;;;21.83;3.13;;;;;;;5.46;100.00;102764.41;6166165;23;20199;-80
2021/04/03 02:07:07;;;;;;;18.92;3.53;;;;;;;5.57;100.00;102760.16;6168569;23;20028;-80
2021/04/03 02:09:33;;;;;;;21.42;4.03;;;;;;;5.56;100.00;102755.75;6172458;23;20001;-81
2021/04/03 02:11:59;;;;;;;21.65;3.53;;;;;;;5.51;100.00;102754.84;6166193;23;20052;-80
2021/04/03 02:14:24;;;;;;;23.10;3.58;;;;;;;5.54;100.00;102746.13;6166951;23;20001;-81
2021/04/03 02:16:52;;;;;;;23.02;2.90;;;;;;;5.53;100.00;102742.63;6165164;23;20069;-80
2021/04/03 02:19:19;;;;;;;31.58;4.00;;;;;;;5.62;100.00;102739.16;6138777;23;20021;-80
2021/04/03 02:21:44;;;;;;;18.67;3.45;;;;;;;5.56;100.00;102747.88;6138523;23;20002;-81
2021/04/03 02:24:10;;;;;;;29.70;3.38;;;;;;;5.61;100.00;102748.78;6165843;23;20375;-80
2021/04/03 02:26:37;;;;;;;31.05;5.07;;;;;;;5.62;100.00;102750.56;6139307;23;20001;-80
2021/04/03 02:29:05;;;;;;;23.85;4.40;;;;;;;5.62;100.00;102762.78;6164637;23;20404;-80
2021/04/03 02:31:32;;;;;;;25.88;3.97;;;;;;;5.63;100.00;102767.19;6162623;23;20082;-81
2021/04/03 02:33:58;;;;;;;29.40;4.72;;;;;;;5.66;100.00;102761.94;6163766;23;20009;-80
2021/04/03 02:36:23;;;;;;;16.63;2.95;;;;;;;5.66;100.00;102756.69;6164307;23;20408;-80
2021/04/03 02:38:50;;;;;;;24.65;3.80;;;;;;;5.66;100.00;102760.19;6141740;23;20090;-80
2021/04/03 02:41:32;;;;;;;31.95;4.25;;;;;;;5.69;100.00;102759.34;6170063;23;20156;-81
2021/04/03 02:44:09;;;;;;;21.77;2.67;;;;;;;5.69;100.00;102765.47;6168404;23;20024;-81
2021/04/03 02:46:37;;;;;;;19.42;3.85;;;;;;;5.66;100.00;102760.19;6164733;23;20037;-81
2021/04/03 02:49:12;;;;;;;29.38;4.93;;;;;;;5.71;100.00;102770.72;6163496;23;20004;-81
2021/04/03 02:51:42;;;;;;;34.17;5.03;;;;;;;5.69;100.00;102764.59;6163010;23;20005;-80
2021/04/03 02:54:08;;;;;;;17.67;3.22;;;;;;;5.74;100.00;102772.50;6164478;23;20068;-81
2021/04/03 02:56:37;;;;;;;17.83;3.33;;;;;;;5.76;100.00;102770.75;6163062;23;20001;-81
2021/04/03 02:59:04;;;;;;;30.30;7.07;;;;;;;5.72;100.00;102769.84;6137195;23;20009;-80
2021/04/03 03:01:32;;;;;;;31.92;4.13;;;;;;;5.76;100.00;102768.13;6135304;23;20013;-80
2021/04/03 03:03:59;;;;;;;28.55;3.60;;;;;;;5.73;100.00;102769.00;6163039;23;20028;-81
2021/04/03 03:06:24;;;;;;;28.67;4.40;;;;;;;5.70;100.00;102767.22;6138189;23;20428;-81
2021/04/03 03:08:51;;;;;;;23.98;4.07;;;;;;;5.74;100.00;102759.38;6165035;23;20040;-79
2021/04/03 03:11:19;;;;;;;16.42;2.80;;;;;;;5.74;100.00;102764.63;6164772;23;20001;-80
2021/04/03 03:13:46;;;;;;;18.50;4.15;;;;;;;5.70;100.00;102758.47;6167100;23;20009;-81
2021/04/03 03:16:14;;;;;;;22.05;4.03;;;;;;;5.74;100.00;102759.38;6166830;23;20022;-81
2021/04/03 03:18:40;;;;;;;20.50;3.75;;;;;;;5.74;100.00;102759.38;6144578;23;20005;-81
2021/04/03 03:21:10;;;;;;;25.05;4.18;;;;;;;5.74;100.00;102762.88;6168544;23;20015;-80
2021/04/03 03:23:35;;;;;;;23.00;3.83;;;;;;;5.71;100.00;102752.34;6168751;23;20006;-81
2021/04/03 03:26:01;;;;;;;21.38;3.83;;;;;;;5.69;100.00;102751.47;6142656;23;20005;-81
2021/04/03 03:28:27;;;;;;;24.38;4.38;;;;;;;5.70;100.00;102761.09;6166488;23;20001;-81
2021/04/03 03:30:54;;;;;;;26.45;4.43;;;;;;;5.72;100.00;102747.13;6165423;23;20021;-81
2021/04/03 03:33:19;;;;;;;13.27;4.03;;;;;;;5.71;100.00;102750.59;6166206;23;20053;-81
2021/04/03 03:35:45;;;;;;;24.30;3.85;;;;;;;5.78;100.00;102758.53;6140984;23;20027;-81
2021/04/03 03:38:10;;;;;;;28.55;3.53;;;;;;;5.72;100.00;102764.59;6140979;23;20016;-80
2021/04/03 03:40:36;;;;;;;22.77;4.22;;;;;;;5.69;100.00;102757.59;6140237;23;20029;-81
2021/04/03 03:43:02;;;;;;;23.52;3.60;;;;;;;5.71;100.00;102754.97;6165935;23;20012;-81
2021/04/03 03:45:28;;;;;;;22.00;4.30;;;;;;;5.72;100.00;102761.97;6165184;23;20779;-82
2021/04/03 03:47:54;;;;;;;28.42;4.07;;;;;;;5.68;100.00;102758.47;6165020;23;20002;-81
2021/04/03 03:50:20;;;;;;;17.77;3.15;;;;;;;5.70;100.00;102755.84;6138741;23;20009;-81
2021/04/03 03:52:45;;;;;;;37.40;5.63;;;;;;;5.77;100.00;102762.88;6165002;23;20009;-81
2021/04/03 03:55:11;;;;;;;18.13;4.10;;;;;;;5.68;100.00;102757.59;6164889;23;20032;-81
2021/04/03 03:57:36;;;;;;;25.30;4.63;;;;;;;5.70;100.00;102756.72;6139934;23;20052;-82
2021/04/03 04:00:05;;;;;;;29.20;3.78;;;;;;;5.73;100.00;102761.13;6138777;23;20013;-82
2021/04/03 04:02:30;;;;;;;26.00;3.92;;;;;;;5.71;100.00;102757.59;6165958;23;20005;-82
2021/04/03 04:04:56;;;;;;;31.95;4.30;;;;;;;5.72;100.00;102755.00;6165634;23;20447;-81
2021/04/03 04:07:21;;;;;;;28.67;4.85;;;;;;;5.66;100.00;102743.56;6166913;23;20383;-81
2021/04/03 04:09:46;;;;;;;19.52;3.65;;;;;;;5.74;100.00;102755.00;6165384;23;20348;-81
2021/04/03 04:12:12;;;;;;;20.00;3.85;;;;;;;5.76;100.00;102765.50;6163438;23;20013;-81
2021/04/03 04:14:38;;;;;;;30.55;5.40;;;;;;;5.69;100.00;102767.22;6165648;23;20025;-81
2021/04/03 04:17:03;;;;;;;24.33;3.90;;;;;;;5.73;100.00;102769.00;6138103;23;20096;-80
2021/04/03 04:19:29;;;;;;;23.60;4.78;;;;;;;5.68;100.00;102760.22;6163848;23;20741;-81
2021/04/03 04:21:55;;;;;;;20.88;4.63;;;;;;;5.69;100.00;102769.84;6163050;23;20053;-80
2021/04/03 04:24:20;;;;;;;19.10;3.05;;;;;;;5.71;100.00;102768.97;6136818;23;20012;-81
2021/04/03 04:26:46;;;;;;;20.48;3.70;;;;;;;5.73;100.00;102771.63;6137948;23;20475;-80
2021/04/03 04:29:12;;;;;;;20.67;4.32;;;;;;;5.68;100.00;102768.97;6170956;23;20001;-82
2021/04/03 04:31:37;;;;;;;21.23;4.68;;;;;;;5.69;100.00;102761.97;6143516;23;20002;-81
2021/04/03 04:34:03;;;;;;;27.73;3.25;;;;;;;5.77;100.00;102775.13;6167304;23;20005;-81
2021/04/03 04:36:28;;;;;;;16.63;3.00;;;;;;;5.80;100.00;102780.41;6165642;23;20033;-81
2021/04/03 04:38:53;;;;;;;17.58;4.25;;;;;;;5.74;100.00;102769.88;6163843;23;20005;-81
2021/04/03 04:41:19;;;;;;;25.20;3.83;;;;;;;5.69;100.00;102772.47;6164207;23;20005;-81
2021/04/03 04:43:44;;;;;;;20.73;3.63;;;;;;;5.71;100.00;102762.84;6165341;23;20016;-82
2021/04/03 04:46:10;;;;;;;21.90;3.30;;;;;;;5.71;100.00;102776.84;6170484;23;20005;-80
2021/04/03 04:48:35;;;;;;;16.98;3.72;;;;;;;5.74;100.00;102783.88;6170884;23;20009;-81
2021/04/03 04:51:00;;;;;;;20.48;4.30;;;;;;;5.72;100.00;102776.00;6168611;23;20028;-81
2021/04/03 04:53:26;;;;;;;39.33;8.25;;;;;;;5.79;100.00;102783.91;6165488;23;20458;-80
2021/04/03 04:55:51;;;;;;;29.30;3.92;;;;;;;5.79;100.00;102790.03;6164665;23;20061;-80
2021/04/03 04:58:16;;;;;;;21.52;3.72;;;;;;;5.74;100.00;102793.47;6162780;23;20052;-80
2021/04/03 05:00:42;;;;;;;25.10;5.28;;;;;;;5.70;100.00;102784.72;6162574;23;20089;-80
2021/04/03 05:03:07;;;;;;;22.63;4.25;;;;;;;5.75;100.00;102790.00;6137855;23;20013;-81
2021/04/03 05:05:32;;;;;;;22.40;3.80;;;;;;;5.68;100.00;102796.94;6164165;23;20028;-80
2021/04/03 05:07:58;;;;;;;25.50;4.65;;;;;;;5.72;100.00;102811.81;6164035;23;20068;-80
2021/04/03 05:10:23;;;;;;;16.67;3.55;;;;;;;5.74;100.00;102811.84;6162863;23;20009;-81
2021/04/03 05:12:48;;;;;;;20.42;3.72;;;;;;;5.70;100.00;102813.56;6162603;23;20025;-80
2021/04/03 05:15:14;;;;;;;21.13;3.75;;;;;;;5.64;100.00;102817.03;6162893;23;20005;-81
2021/04/03 05:17:39;;;;;;;30.73;5.38;;;;;;;5.63;100.00;102814.41;6163814;23;20009;-81
2021/04/03 05:20:05;;;;;;;26.58;3.85;;;;;;;5.62;100.00;102821.41;6137788;23;20018;-81
2021/04/03 05:22:31;;;;;;;32.13;4.65;;;;;;;5.55;100.00;102824.81;6163435;23;20308;-81
2021/04/03 05:24:56;;;;;;;32.67;4.65;;;;;;;5.49;100.00;102823.91;6163831;23;20009;-80
2021/04/03 05:27:22;;;;;;;27.45;4.13;;;;;;;5.41;100.00;102823.81;6143991;23;20005;-80
2021/04/03 05:29:47;;;;;;;30.25;5.22;;;;;;;5.33;100.00;102813.28;6165911;23;20009;-81
2021/04/03 05:32:12;;;;;;;23.15;5.05;;;;;;;5.30;100.00;102818.50;6164979;23;20006;-81
2021/04/03 05:34:38;;;;;;;26.65;4.13;;;;;;;5.23;100.00;102824.56;6166708;23;20036;-81
2021/04/03 05:37:03;;;;;;;33.30;6.68;;;;;;;5.16;100.00;102820.09;6173063;23;20065;-81
2021/04/03 05:39:29;;;;;;;27.88;5.07;;;;;;;5.10;100.00;102826.16;6166323;23;20028;-81
2021/04/03 05:41:54;;;;;;;31.38;5.43;;;;;;;5.08;100.00;102833.16;6166744;23;20036;-81
2021/04/03 05:44:22;;;;;;;29.77;4.68;;;;;;;5.07;100.00;102839.25;6167849;23;20006;-81
2021/04/03 05:46:49;;;;;;;35.60;5.22;;;;;;;5.05;100.00;102845.34;6140815;23;20092;-81
2021/04/03 05:49:17;;;;;;;33.33;5.25;;;;;;;5.03;100.00;102845.31;6141043;23;20009;-81
2021/04/03 05:51:43;;;;;;;43.63;5.38;;;;;;;5.05;100.00;102840.09;6140819;23;20005;-81
2021/04/03 05:54:10;;;;;;;30.13;4.38;;;;;;;5.11;100.00;102842.78;6140723;23;20040;-81
2021/04/03 05:56:35;;;;;;;30.85;4.80;;;;;;;5.08;100.00;102843.63;6165679;23;20009;-81
2021/04/03 05:59:01;;;;;;;35.70;5.03;;;;;;;5.05;100.00;102846.22;6163984;23;20006;-81
2021/04/03 06:01:26;;;;;;;42.05;6.10;;;;;;;5.10;100.00;102855.00;6162921;23;20096;-81
2021/04/03 06:03:54;;;;;;;30.52;6.07;;;;;;;5.09;100.00;102852.38;6162405;23;20005;-81
2021/04/03 06:06:20;;;;;;;32.55;6.50;;;;;;;5.11;100.00;102859.38;6163200;23;20064;-80
2021/04/03 06:08:45;;;;;;;31.13;5.30;;;;;;;5.10;100.00;102868.09;6163617;23;20013;-81
2021/04/03 06:11:21;;;;;;;33.80;6.05;;;;;;;5.15;100.00;102869.03;6138675;23;20065;-81
2021/04/03 06:13:52;;;;;;;39.63;6.13;;;;;;;5.14;100.00;102863.78;6164211;23;20005;-81
2021/04/03 06:16:37;;;;;;;50.63;5.60;;;;;;;5.18;100.00;102870.81;6163634;23;20017;-80
2021/04/03 06:19:13;;;;;;;38.47;6.13;;;;;;;5.21;100.00;102883.94;6135820;23;20004;-81
2021/04/03 06:21:41;;;;;;;28.67;5.07;;;;;;;5.17;100.00;102880.44;6163263;23;20033;-81
2021/04/03 06:24:29;;;;;;;29.02;4.93;;;;;;;5.22;100.00;102885.72;6162903;23;20380;-81
2021/04/03 06:27:07;;;;;;;33.88;5.45;;;;;;;5.33;100.00;102893.69;6163155;23;20005;-80
2021/04/03 06:29:44;;;;;;;34.22;5.38;;;;;;;5.31;100.00;102890.16;6162036;23;20013;-81
2021/04/03 06:32:11;;;;;;;28.67;5.13;;;;;;;5.35;100.00;102892.84;6161554;23;20009;-79
2021/04/03 06:34:39;;;;;;;41.15;7.18;;;;;;;5.36;100.00;102883.22;6159659;23;20020;-81
2021/04/03 06:37:07;;;;;;;35.65;6.90;;;;;;;5.35;100.00;102882.34;6160903;23;20002;-81
2021/04/03 06:40:10;;;;;;;36.30;6.30;;;;;;;5.49;100.00;102903.47;6162198;23;20328;-82
2021/04/03 06:42:36;;;;;;;39.20;5.30;;;;;;;5.52;100.00;102892.09;6160754;23;20036;-82
2021/04/03 06:45:25;;;;;;;40.25;5.90;;;;;;;5.55;100.00;102902.63;6161874;23;20388;-80
2021/04/03 06:48:09;;;;;;;27.25;5.88;;;;;;;5.55;100.00;102908.75;6164272;23;20029;-81
2021/04/03 06:50:39;;;;;;;36.17;5.43;;;;;;;5.68;100.00;102912.38;6136362;23;20009;-81
2021/04/03 06:53:10;;;;;;;39.92;5.68;;;;;;;5.71;100.00;102907.16;6161657;23;20033;-80
2021/04/03 06:55:36;;;;;;;36.38;6.45;;;;;;;5.73;100.00;102908.06;6166217;23;20009;-80
2021/04/03 06:58:04;;;;;;;35.53;7.93;;;;;;;5.77;100.00;102909.81;6164681;23;20153;-81
2021/04/03 07:00:31;;;;;;;33.33;5.80;;;;;;;5.83;100.00;102909.88;6165166;23;20005;-80
2021/04/03 07:03:03;;;;;;;41.05;6.30;;;;;;;5.88;100.00;102921.31;6165555;23;20056;-80
2021/04/03 07:05:33;;;;;;;33.85;6.10;;;;;;;5.93;100.00;102914.38;6137572;23;20428;-80
2021/04/03 07:08:05;;;;;;;45.45;6.38;;;;;;;5.93;100.00;102924.00;6163925;23;20005;-81
2021/04/03 07:10:31;;;;;;;40.92;6.57;;;;;;;6.03;100.00;102927.59;6163007;23;20013;-80
2021/04/03 07:12:58;;;;;;;27.98;5.53;;;;;;;6.06;100.00;102933.72;6163201;23;20002;-80
2021/04/03 07:15:24;;;;;;;35.92;6.38;;;;;;;6.15;100.00;102938.16;6163993;23;20009;-81
2021/04/03 07:17:51;;;;;;;35.83;5.53;;;;;;;6.18;100.00;102930.31;6164031;23;20032;-80
2021/04/03 07:20:23;;;;;;;26.48;6.75;;;;;;;6.28;100.00;102929.50;6162943;23;20092;-80
2021/04/03 07:23:10;;;;;;;27.55;4.88;;;;;;;6.35;100.00;102927.78;6163244;23;20009;-80
2021/04/03 07:25:38;;;;;;;29.05;5.45;;;;;;;6.41;100.00;102933.94;6137170;23;20006;-80
2021/04/03 07:28:05;;;;;;;37.95;5.93;;;;;;;6.49;100.00;102950.66;6135697;23;20016;-80
2021/04/03 07:30:39;;;;;;;36.47;4.97;;;;;;;6.49;100.00;102939.25;6162075;23;20028;-81
2021/04/03 07:33:16;;;;;;;27.48;5.72;;;;;;;6.58;100.00;102938.44;6159588;23;20009;-79
2021/04/03 07:35:49;;;;;;;35.95;5.65;;;;;;;6.62;100.00;102937.56;6160716;23;20070;-80
2021/04/03 07:38:37;;;;;;;33.38;4.93;;;;;;;6.73;100.00;102942.03;6160468;23;20012;-80
2021/04/03 07:41:10;;;;;;;34.00;4.80;;;;;;;6.91;100.00;102938.59;6133565;23;20029;-80
2021/04/03 07:43:39;;;;;;;28.67;6.65;;;;;;;6.99;100.00;102939.50;6161250;23;20722;-80
2021/04/03 07:46:27;;;;;;;33.70;5.20;;;;;;;7.10;100.00;102949.19;6162073;23;20036;-80
2021/04/03 07:48:59;;;;;;;27.85;4.70;;;;;;;7.15;100.00;102942.19;6121278;23;20012;-80
2021/04/03 07:51:25;;;;;;;31.35;5.07;;;;;;;7.04;100.00;102952.69;6162592;23;20016;-80
2021/04/03 07:53:52;;;;;;;29.05;4.07;;;;;;;7.08;100.00;102954.44;6161910;23;20009;-80
2021/04/03 07:56:23;;;;;;;31.15;5.40;;;;;;;6.99;100.00;102950.03;6161905;23;20009;-80
2021/04/03 07:58:52;;;;;;;27.90;4.45;;;;;;;7.17;100.00;102948.31;6155244;23;20072;-80
2021/04/03 08:01:19;;;;;;;33.22;5.53;;;;;;;7.21;100.00;102942.19;6161654;23;20009;-80
2021/04/03 08:04:01;;;;;;;29.38;4.82;;;;;;;7.24;100.00;102953.63;6155267;23;20012;-81
2021/04/03 08:06:35;;;;;;;28.88;5.80;;;;;;;7.52;100.00;102953.69;6153368;23;20016;-80
2021/04/03 08:09:02;;;;;;;28.50;6.25;;;;;;;7.57;100.00;102951.94;6152736;23;20009;-80
2021/04/03 08:11:28;;;;;;;32.72;5.07;;;;;;;7.76;100.00;102969.50;6126019;23;20002;-79
2021/04/03 08:13:54;;;;;;;42.60;6.47;;;;;;;7.69;100.00;102969.50;6125474;23;20033;-80
2021/04/03 08:16:21;;;;;;;34.80;6.80;;;;;;;7.91;100.00;102975.66;6154422;23;20347;-80
2021/04/03 08:18:49;;;;;;;26.40;5.03;;;;;;;8.29;100.00;102973.03;6157696;23;20006;-80
2021/04/03 08:21:14;;;;;;;28.73;6.15;;;;;;;8.54;100.00;102973.91;6155611;23;20033;-80
2021/04/03 08:23:48;;;;;;;28.42;5.53;;;;;;;8.99;100.00;102964.13;6128554;23;20017;-81
2021/04/03 08:26:14;;;;;;;33.63;5.40;;;;;;;8.74;100.00;102992.31;6152583;23;20012;-80
2021/04/03 08:28:39;;;;;;;26.42;4.85;;;;;;;8.11;100.00;102994.09;6153694;23;20005;-80
2021/04/03 08:31:15;;;;;;;37.58;5.18;;;;;;;8.24;100.00;102991.47;6153453;23;20376;-81
2021/04/03 08:33:40;;;;;;;38.80;5.65;;;;;;;8.10;100.00;102995.88;6156730;23;20331;-80
2021/04/03 08:36:13;;;;;;;34.28;5.22;;;;;;;7.98;100.00;102993.22;6126554;23;20001;-80
2021/04/03 08:38:41;;;;;;;34.58;5.30;;;;;;;8.22;100.00;102985.31;6151456;23;20010;-80
2021/04/03 08:41:07;;;;;;;43.53;5.60;;;;;;;8.53;100.00;102999.41;6126210;23;20331;-81
2021/04/03 08:43:33;;;;;;;44.00;5.65;;;;;;;8.79;100.00;102993.19;6126536;23;20412;-80
2021/04/03 08:46:08;;;;;;;26.02;4.78;;;;;;;9.05;100.00;102985.19;6152612;23;20421;-81
2021/04/03 08:48:36;;;;;;;28.35;5.95;;;;;;;8.99;100.00;103001.91;6152833;23;20035;-81
2021/04/03 08:51:04;;;;;;;32.55;6.28;;;;;;;9.18;100.00;102993.91;6151242;23;20033;-80
2021/04/03 08:53:50;;;;;;;30.73;4.88;;;;;;;9.44;100.00;102977.94;6124241;23;20004;-80
2021/04/03 08:56:29;;;;;;;30.13;4.95;;;;;;;9.45;100.00;102985.00;6126432;23;20059;-80
2021/04/03 08:58:56;;;;;;;29.20;5.53;;;;;;;9.37;100.00;102984.16;6152115;23;20010;-80
2021/04/03 09:01:29;;;;;;;27.42;4.43;;;;;;;9.63;100.00;102982.22;6152454;23;20037;-81
2021/04/03 09:04:00;;;;;;;24.33;4.32;;;;;;;9.62;100.00;102985.75;6156680;23;20005;-80
2021/04/03 09:06:46;;;;;;;22.10;4.13;;;;;;;8.94;100.00;102985.22;6127704;23;20032;-80
2021/04/03 09:09:15;;;;;;;37.17;5.43;;;;;;;9.66;100.00;102983.97;6149105;23;20009;-80
2021/04/03 09:11:59;;;;;;;29.98;5.18;;;;;;;9.72;100.00;102981.28;6125671;23;20239;-80
2021/04/03 09:14:26;;;;;;;24.45;4.43;;;;;;;9.81;100.00;102997.94;6154102;23;20029;-80
2021/04/03 09:16:52;;;;;;;22.60;5.10;;;;;;;9.81;100.00;102982.09;6128692;23;20025;-81
2021/04/03 09:19:32;;;;;;;23.73;4.15;;;;;;;10.15;100.00;102981.84;6155513;23;20016;-81
2021/04/03 09:21:58;;;;;;;32.40;5.03;;;;;;;10.35;100.00;102990.50;6156422;23;20012;-82
2021/04/03 09:24:38;;;;;;;27.92;3.83;;;;;;;10.07;100.00;102987.19;6156806;23;20009;-81
2021/04/03 09:27:20;;;;;;;26.30;5.50;;;;;;;10.03;100.00;102995.13;6154840;23;20401;-81
2021/04/03 09:29:54;;;;;;;28.75;4.90;;;;;;;10.13;100.00;102983.59;6126964;23;20064;-81
2021/04/03 09:32:20;;;;;;;25.15;4.57;;;;;;;10.23;100.00;102980.00;6156135;23;20033;-81
2021/04/03 09:34:45;;;;;;;28.50;5.18;;;;;;;10.46;100.00;102978.94;6127396;23;20014;-81
2021/04/03 09:37:22;;;;;;;41.13;5.53;;;;;;;10.67;100.00;102977.84;6128275;23;20001;-81
2021/04/03 09:39:53;;;;;;;25.38;4.68;;;;;;;10.62;100.00;102975.25;6127245;23;20416;-81
2021/04/03 09:42:21;;;;;;;33.67;6.15;;;;;;;10.37;100.00;102985.19;6154037;23;20052;-80
2021/04/03 09:44:48;;;;;;;27.77;5.38;;;;;;;10.40;100.00;102977.25;6154691;23;20404;-80
2021/04/03 09:47:13;;;;;;;28.95;6.03;;;;;;;10.42;100.00;102985.16;6153820;23;20037;-80
2021/04/03 09:49:40;;;;;;;23.30;4.28;;;;;;;10.76;100.00;102978.63;6155204;23;20005;-80
2021/04/03 09:52:06;;;;;;;16.60;3.67;;;;;;;11.16;100.00;102975.50;6156718;23;20012;-81
2021/04/03 09:54:31;;;;;;;22.35;4.45;;;;;;;11.45;100.00;102974.22;6156909;23;20005;-81
2021/04/03 09:56:56;;;;;;;26.73;5.47;;;;;;;11.52;100.00;102974.09;6154988;23;20011;-81
2021/04/03 09:59:23;;;;;;;24.67;4.93;;;;;;;11.32;100.00;102976.16;6128064;23;20483;-80
2021/04/03 10:01:49;;;;;;;21.45;4.68;;;;;;;11.09;100.00;102979.09;6127959;23;20013;-79
2021/04/03 10:04:15;;;;;;;24.30;5.20;;;;;;;11.18;100.00;102980.75;6153519;23;20025;-81
2021/04/03 10:06:40;;;;;;;21.83;4.53;;;;;;;11.12;100.00;102985.25;6155388;23;20411;-79
2021/04/03 10:09:05;;;;;;;20.50;4.25;;;;;;;11.84;100.00;102983.38;6154171;23;20080;-81
2021/04/03 10:11:31;;;;;;;34.65;6.30;;;;;;;11.78;100.00;102989.59;6154043;23;20001;-80
2021/04/03 10:13:56;;;;;;;24.35;4.47;;;;;;;12.16;100.00;102982.88;6128679;23;20006;-82
2021/04/03 10:16:22;;;;;;;25.75;5.90;;;;;;;12.84;100.00;102985.13;6155289;23;20013;-82
2021/04/03 10:18:47;;;;;;;28.38;5.00;;;;;;;12.03;100.00;102991.91;6128114;23;20227;-81
2021/04/03 10:21:13;;;;;;;25.83;4.85;;;;;;;12.77;99.93;102994.13;6128468;23;20316;-81
2021/04/03 10:23:39;;;;;;;21.75;5.00;;;;;;;13.86;87.64;102985.56;6154666;23;20076;-80
2021/04/03 10:26:04;;;;;;;17.65;3.75;;;;;;;14.82;75.46;102984.00;6153799;23;20001;-81
2021/04/03 10:28:29;;;;;;;25.30;4.32;;;;;;;14.31;74.87;102987.09;6154586;23;20005;-81
2021/04/03 10:30:55;;;;;;;22.33;3.95;;;;;;;15.51;67.18;102980.13;6154263;23;20085;-81
2021/04/03 10:33:20;;;;;;;29.30;4.25;;;;;;;16.72;56.62;102979.66;6158237;23;20006;-81
2021/04/03 10:35:46;;;;;;;15.80;3.70;;;;;;;16.50;50.74;102983.97;6129086;23;20144;-80
2021/04/03 10:38:11;;;;;;;23.27;5.65;;;;;;;17.60;47.32;102975.38;6155084;23;20068;-80
2021/04/03 10:40:37;;;;;;;22.27;4.82;;;;;;;16.98;45.29;102975.16;6154573;23;20060;-80
2021/04/03 10:43:02;;;;;;;27.83;4.38;;;;;;;14.58;52.76;102983.75;6131039;23;19997;-80
2021/04/03 10:45:27;;;;;;;28.85;6.05;;;;;;;13.65;55.41;102991.38;6156326;23;20320;-80
2021/04/03 10:47:53;;;;;;;32.83;6.20;;;;;;;14.12;54.66;102994.69;6154126;23;20729;-80
2021/04/03 10:50:18;;;;;;;31.40;5.55;;;;;;;16.02;48.17;102995.44;6153103;23;20014;-81
2021/04/03 10:52:44;;;;;;;15.55;4.03;;;;;;;17.80;44.36;102982.63;6153108;23;20019;-81
2021/04/03 10:55:10;;;;;;;19.70;4.88;;;;;;;18.01;42.94;102990.69;6127859;23;20040;-80
2021/04/03 10:57:35;;;;;;;18.60;4.25;;;;;;;14.09;50.08;102986.78;6153587;23;20002;-81
2021/04/03 11:00:01;;;;;;;17.90;4.18;;;;;;;12.42;56.17;102996.53;6154865;23;20028;-81
2021/04/03 11:02:26;;;;;;;22.73;4.35;;;;;;;12.60;55.86;102995.34;6152700;23;20084;-81
2021/04/03 11:04:51;;;;;;;33.53;5.95;;;;;;;16.24;47.04;102988.44;6153649;23;20005;-82
2021/04/03 11:07:16;;;;;;;23.50;4.13;;;;;;;16.30;46.16;102985.53;6153718;23;20001;-79
2021/04/03 11:09:42;;;;;;;20.42;3.72;;;;;;;17.94;42.97;102971.34;6152837;23;20698;-80
2021/04/03 11:12:08;;;;;;;34.13;6.03;;;;;;;19.53;38.00;102979.38;6127245;23;20013;-80
2021/04/03 11:14:33;;;;;;;16.20;4.63;;;;;;;19.79;37.15;102973.66;6153175;23;20005;-80
2021/04/03 11:16:58;;;;;;;19.95;4.43;;;;;;;17.73;39.97;102978.47;6109478;23;20018;-80
2021/04/03 11:19:23;;;;;;;27.35;5.30;;;;;;;14.75;46.54;102983.28;6097995;23;20105;-80
2021/04/03 11:21:51;;;;;;;20.60;4.07;;;;;;;13.92;49.15;102993.41;6098724;23;20099;-81